Time;durP1;ratioP1;P1;durP2;ratioP2;P2;SDS_P1;SDS_P2;PMS_P1;PMS_P2;Temp;Humidity;BMP_temperature;BMP_pressure;BME280_temperature;BME280_humidity;BME280_pressure;Samples;Min_cycle;Max_cycle;Signal;HPM_P1;HPM_P2
2021/12/05 00:22:16;;;;;;;24.23;14.90;;;4.00;99.90;;;;;;5064954;28;20056;-72
2021/12/05 00:24:46;;;;;;;26.63;14.77;;;3.90;99.90;;;;;;5059185;28;20123;-72
2021/12/05 00:27:19;;;;;;;22.85;15.13;;;3.90;99.90;;;;;;5056564;28;20459;-72
2021/12/05 00:51:22;;;;;;;22.23;15.07;;;3.90;99.90;;;;;;5071958;28;20040;-71
2021/12/05 01:17:18;;;;;;;23.30;15.13;;;4.00;99.90;;;;;;5075265;28;20110;-71
2021/12/05 01:19:44;;;;;;;19.77;13.50;;;3.90;99.90;;;;;;5056864;28;20041;-71
2021/12/05 01:22:12;;;;;;;28.23;16.73;;;3.90;99.90;;;;;;5062050;28;20040;-71
2021/12/05 01:28:14;;;;;;;20.23;14.67;;;3.90;99.90;;;;;;5017129;28;20542;-71
2021/12/05 01:33:25;;;;;;;22.87;14.80;;;3.90;99.90;;;;;;5062885;28;20101;-72
2021/12/05 01:36:05;;;;;;;23.40;16.53;;;3.90;99.90;;;;;;5078582;28;20044;-71
2021/12/05 01:55:55;;;;;;;25.17;15.80;;;4.00;99.90;;;;;;5076948;28;20076;-71
2021/12/05 02:29:21;;;;;;;19.47;13.50;;;4.10;99.90;;;;;;5072582;28;20443;-71
2021/12/05 02:30:55;;;;;;;26.47;18.00;;;4.10;99.90;;;;;;5075957;28;20052;-72
2021/12/05 02:36:23;;;;;;;30.43;19.03;;;4.20;99.90;;;;;;5071101;28;20062;-72
2021/12/05 02:41:50;;;;;;;37.17;23.17;;;4.10;99.90;;;;;;5029792;28;20044;-72
2021/12/05 02:44:24;;;;;;;32.43;21.90;;;4.20;99.90;;;;;;5016218;28;20040;-72
2021/12/05 02:47:02;;;;;;;35.90;23.93;;;4.20;99.90;;;;;;5033545;28;20194;-72
2021/12/05 02:49:31;;;;;;;42.97;28.63;;;4.20;99.90;;;;;;5057085;28;20036;-72
2021/12/05 02:52:04;;;;;;;41.50;29.03;;;4.20;99.90;;;;;;5050857;28;20186;-72
2021/12/05 02:54:37;;;;;;;35.53;25.53;;;4.20;99.90;;;;;;5077525;28;20089;-72
2021/12/05 02:57:04;;;;;;;38.23;24.87;;;4.20;99.90;;;;;;5048183;28;20037;-72
2021/12/05 03:02:11;;;;;;;40.27;25.90;;;4.20;99.90;;;;;;5082794;28;20048;-72
2021/12/05 03:04:41;;;;;;;33.23;24.60;;;4.20;99.90;;;;;;5070614;28;20044;-72
2021/12/05 03:07:09;;;;;;;45.53;27.60;;;4.20;99.90;;;;;;5056485;28;20507;-71
2021/12/05 03:09:37;;;;;;;37.13;27.13;;;4.30;99.90;;;;;;5066690;28;20048;-72
2021/12/05 03:12:05;;;;;;;40.60;28.23;;;4.20;99.90;;;;;;5063839;28;20056;-72
2021/12/05 03:14:31;;;;;;;39.47;27.67;;;4.20;99.90;;;;;;5047063;28;20041;-72
2021/12/05 03:16:57;;;;;;;40.50;28.07;;;4.20;99.90;;;;;;5071455;28;20051;-71
2021/12/05 03:19:23;;;;;;;38.30;27.33;;;4.30;99.90;;;;;;5076030;28;20068;-72
2021/12/05 03:21:54;;;;;;;41.20;28.03;;;4.30;99.90;;;;;;5076448;28;20052;-72
2021/12/05 03:24:21;;;;;;;50.55;31.17;;;4.20;99.90;;;;;;5064268;28;20060;-72
2021/12/05 03:26:50;;;;;;;47.67;30.67;;;4.20;99.90;;;;;;5071270;28;20092;-71
2021/12/05 03:29:19;;;;;;;37.77;28.27;;;4.20;99.90;;;;;;5070793;28;20048;-71
2021/12/05 03:31:46;;;;;;;44.87;29.43;;;4.20;99.90;;;;;;5064331;28;20036;-71
2021/12/05 03:34:14;;;;;;;41.60;28.83;;;4.10;99.90;;;;;;5072912;28;20498;-70
2021/12/05 03:36:45;;;;;;;41.33;28.17;;;4.20;99.90;;;;;;5059663;28;20149;-71
2021/12/05 03:39:11;;;;;;;42.23;27.07;;;4.20;99.90;;;;;;5056387;28;20064;-71
2021/12/05 03:41:38;;;;;;;40.83;27.30;;;4.10;99.90;;;;;;5053954;28;20041;-70
2021/12/05 03:44:06;;;;;;;39.33;26.47;;;4.20;99.90;;;;;;5057125;28;20048;-71
2021/12/05 03:46:32;;;;;;;43.43;26.07;;;4.10;99.90;;;;;;5051389;28;20074;-71
2021/12/05 03:49:04;;;;;;;40.53;29.23;;;4.10;99.90;;;;;;5062680;28;20092;-71
2021/12/05 03:51:32;;;;;;;37.43;25.53;;;4.10;99.90;;;;;;5065840;28;20127;-71
2021/12/05 03:53:59;;;;;;;37.43;25.67;;;4.20;99.90;;;;;;5078794;28;20040;-71
2021/12/05 03:56:25;;;;;;;37.33;25.63;;;4.10;99.90;;;;;;5063350;28;20272;-71
2021/12/05 03:58:53;;;;;;;38.37;25.60;;;4.10;99.90;;;;;;5047384;28;20040;-71
2021/12/05 04:01:20;;;;;;;39.37;26.70;;;4.10;99.90;;;;;;5071667;28;20064;-71
2021/12/05 04:03:48;;;;;;;34.00;25.10;;;4.10;99.90;;;;;;5075690;28;20582;-71
2021/12/05 04:06:17;;;;;;;31.37;23.57;;;4.10;99.90;;;;;;5045886;28;20040;-71
2021/12/05 04:08:43;;;;;;;33.43;23.30;;;4.10;99.90;;;;;;5066136;28;20394;-71
2021/12/05 04:11:24;;;;;;;36.00;23.80;;;4.20;99.90;;;;;;5065057;28;20044;-71
2021/12/05 04:13:51;;;;;;;35.20;22.83;;;4.10;99.90;;;;;;5062396;28;20066;-71
2021/12/05 04:16:17;;;;;;;33.53;23.07;;;4.10;99.90;;;;;;5062150;28;20036;-71
2021/12/05 04:18:47;;;;;;;35.70;22.90;;;4.00;99.90;;;;;;5087201;28;20105;-71
2021/12/05 04:21:14;;;;;;;;;;;4.10;99.90;;;;;;5085547;28;20109;-71
2021/12/05 04:23:40;;;;;;;32.03;19.90;;;4.00;99.90;;;;;;5071713;28;19924;-71
2021/12/05 04:26:06;;;;;;;30.87;21.40;;;4.00;99.90;;;;;;5055489;28;20032;-71
2021/12/05 04:28:32;;;;;;;31.13;20.07;;;4.00;99.90;;;;;;5065054;28;20050;-71
2021/12/05 04:30:58;;;;;;;31.17;20.30;;;4.00;99.90;;;;;;5066572;28;20137;-71
2021/12/05 04:33:24;;;;;;;31.87;19.30;;;4.00;99.90;;;;;;5072442;28;20111;-71
2021/12/05 04:35:50;;;;;;;30.03;18.97;;;4.00;99.90;;;;;;5061417;28;20127;-71
2021/12/05 04:38:16;;;;;;;31.93;19.83;;;3.90;99.90;;;;;;5078319;28;20577;-70
2021/12/05 04:40:45;;;;;;;29.43;18.00;;;3.90;99.90;;;;;;5080441;28;20047;-71
2021/12/05 04:43:10;;;;;;;31.87;19.40;;;3.90;99.90;;;;;;5046842;28;20094;-70
2021/12/05 04:45:37;;;;;;;29.87;19.00;;;3.90;99.90;;;;;;5068128;28;20048;-71
2021/12/05 04:48:05;;;;;;;29.73;17.90;;;3.90;99.90;;;;;;5074486;28;20040;-71
2021/12/05 04:50:32;;;;;;;25.13;15.97;;;3.90;99.90;;;;;;5080250;28;20077;-71
2021/12/05 04:53:02;;;;;;;32.33;16.87;;;3.80;99.90;;;;;;5066212;28;20545;-71
2021/12/05 04:55:31;;;;;;;26.97;16.50;;;3.80;99.90;;;;;;5050063;28;20056;-71
2021/12/05 04:57:57;;;;;;;28.03;17.13;;;3.80;99.90;;;;;;5083272;28;20048;-71
2021/12/05 05:00:26;;;;;;;30.17;17.77;;;3.80;99.90;;;;;;5057279;28;20044;-71
2021/12/05 05:02:54;;;;;;;24.05;15.48;;;3.70;99.90;;;;;;5068195;28;20060;-71
2021/12/05 05:05:20;;;;;;;27.17;16.80;;;3.80;99.90;;;;;;5068176;28;20476;-71
2021/12/05 05:07:46;;;;;;;26.97;15.50;;;3.70;99.90;;;;;;5050614;28;20044;-71
2021/12/05 05:10:13;;;;;;;28.40;15.50;;;3.60;99.90;;;;;;5052166;28;20071;-71
2021/12/05 05:12:39;;;;;;;28.77;15.30;;;3.60;99.90;;;;;;5077049;28;20056;-71
2021/12/05 05:15:07;;;;;;;25.17;14.57;;;3.60;99.90;;;;;;5053173;28;20569;-71
2021/12/05 05:17:34;;;;;;;30.57;15.93;;;3.60;99.90;;;;;;5057845;28;20487;-71
2021/12/05 05:20:12;;;;;;;30.10;15.03;;;3.60;99.90;;;;;;5046312;28;20036;-71
2021/12/05 05:22:46;;;;;;;21.17;14.70;;;3.60;99.90;;;;;;5054542;28;20090;-72
2021/12/05 05:46:18;;;;;;;28.00;14.60;;;3.30;99.90;;;;;;5063507;28;20661;-71
2021/12/05 05:51:16;;;;;;;25.63;15.57;;;3.30;99.90;;;;;;5051818;28;20514;-71
2021/12/05 05:53:46;;;;;;;27.57;14.60;;;3.20;99.90;;;;;;5065177;28;20680;-71
2021/12/05 05:56:17;;;;;;;25.75;16.00;;;3.20;99.90;;;;;;5057007;28;20032;-73
2021/12/05 05:58:58;;;;;;;26.53;14.43;;;3.20;99.90;;;;;;5050389;28;20083;-71
2021/12/05 06:04:06;;;;;;;24.30;14.50;;;3.20;99.90;;;;;;5067093;28;20060;-71
2021/12/05 06:06:32;;;;;;;31.15;14.95;;;3.20;99.90;;;;;;5032153;28;20036;-71
2021/12/05 06:09:02;;;;;;;29.57;15.43;;;3.20;99.90;;;;;;5064901;28;20047;-71
2021/12/05 06:11:29;;;;;;;28.30;14.30;;;3.10;99.90;;;;;;5057643;28;20062;-71
2021/12/05 06:13:54;;;;;;;25.53;15.47;;;3.10;99.90;;;;;;5052901;28;20025;-72
2021/12/05 06:16:20;;;;;;;25.97;15.03;;;3.10;99.90;;;;;;5067600;28;20871;-71
2021/12/05 06:18:47;;;;;;;24.50;15.13;;;3.20;99.90;;;;;;5071261;28;20036;-71
2021/12/05 06:21:14;;;;;;;23.33;14.27;;;3.20;99.90;;;;;;5047098;28;20109;-71
2021/12/05 06:23:40;;;;;;;30.27;15.17;;;3.20;99.90;;;;;;5049583;28;20043;-71
2021/12/05 06:26:12;;;;;;;22.00;14.57;;;3.20;99.90;;;;;;5062789;28;20567;-71
2021/12/05 06:28:41;;;;;;;30.73;15.50;;;3.20;99.90;;;;;;5054583;28;20052;-71
2021/12/05 06:39:29;;;;;;;28.57;14.60;;;3.20;99.90;;;;;;5067064;28;20061;-71
2021/12/05 06:47:16;;;;;;;24.23;15.13;;;3.20;99.90;;;;;;5072138;28;20067;-71
2021/12/05 06:49:43;;;;;;;36.90;17.40;;;3.20;99.90;;;;;;5061145;28;20079;-71
2021/12/05 06:52:12;;;;;;;27.07;16.03;;;3.30;99.90;;;;;;5077592;28;20070;-72
2021/12/05 06:54:39;;;;;;;31.73;16.30;;;3.30;99.90;;;;;;5046575;28;20040;-72
2021/12/05 06:57:06;;;;;;;26.63;15.67;;;3.30;99.90;;;;;;5054619;28;20033;-72
2021/12/05 06:59:33;;;;;;;25.77;14.90;;;3.30;99.90;;;;;;5074704;28;20047;-72
2021/12/05 07:02:00;;;;;;;27.90;15.83;;;3.30;99.90;;;;;;5076011;28;20106;-72
2021/12/05 07:06:58;;;;;;;31.23;15.90;;;3.40;99.90;;;;;;5076180;28;20579;-72
2021/12/05 07:09:24;;;;;;;30.17;16.77;;;3.40;99.90;;;;;;5050914;28;20087;-72
2021/12/05 07:17:07;;;;;;;28.17;17.00;;;3.40;99.90;;;;;;5078757;28;20045;-72
2021/12/05 07:19:56;;;;;;;32.33;17.30;;;3.40;99.90;;;;;;5060848;28;20052;-72
2021/12/05 07:22:28;;;;;;;30.37;17.10;;;3.40;99.90;;;;;;5068897;28;20043;-72
2021/12/05 07:25:10;;;;;;;30.50;17.70;;;3.40;99.90;;;;;;5040480;28;20051;-71
2021/12/05 07:43:46;;;;;;;31.33;18.03;;;3.50;99.90;;;;;;5047493;28;20048;-71
2021/12/05 07:46:12;;;;;;;31.43;18.40;;;3.50;99.90;;;;;;5045042;28;20043;-71
2021/12/05 07:48:41;;;;;;;33.03;18.53;;;3.50;99.90;;;;;;5054291;28;20036;-72
2021/12/05 07:56:43;;;;;;;34.60;19.80;;;3.50;99.90;;;;;;5066929;28;20052;-71
2021/12/05 08:15:39;;;;;;;28.30;17.40;;;3.60;99.90;;;;;;5052001;28;20056;-71
2021/12/05 08:18:05;;;;;;;32.23;19.70;;;3.50;99.90;;;;;;5057743;28;20074;-71
2021/12/05 08:20:34;;;;;;;30.13;19.83;;;3.60;99.90;;;;;;5065879;28;20043;-71
2021/12/05 08:23:02;;;;;;;31.07;19.33;;;3.60;99.90;;;;;;5048719;28;20036;-71
2021/12/05 08:25:31;;;;;;;35.17;20.27;;;3.60;99.90;;;;;;5068333;28;20090;-72
2021/12/05 08:28:35;;;;;;;29.33;18.80;;;3.60;99.90;;;;;;5037388;28;20123;-72
2021/12/05 08:31:03;;;;;;;31.50;19.47;;;3.60;99.90;;;;;;5060433;28;20067;-72
2021/12/05 09:51:00;;;;;;;27.50;18.43;;;4.00;99.90;;;;;;5067832;28;20055;-70
2021/12/05 10:02:45;;;;;;;25.13;17.93;;;4.20;99.90;;;;;;5069818;28;20437;-71
2021/12/05 10:10:38;;;;;;;23.27;16.77;;;4.30;99.90;;;;;;5068787;28;20460;-71
2021/12/05 10:13:19;;;;;;;28.57;17.43;;;4.30;99.90;;;;;;5032400;28;20475;-71
2021/12/05 10:16:28;;;;;;;26.30;17.20;;;4.30;99.90;;;;;;5068954;28;20115;-72
2021/12/05 10:36:04;;;;;;;19.73;14.27;;;4.60;99.90;;;;;;5075752;28;20060;-72
2021/12/05 10:38:45;;;;;;;21.90;14.07;;;4.60;99.90;;;;;;5074390;28;20515;-71
2021/12/05 10:43:44;;;;;;;21.63;14.60;;;4.80;99.90;;;;;;5074283;28;20064;-72
2021/12/05 10:46:15;;;;;;;20.73;13.73;;;4.70;99.90;;;;;;5063750;28;20190;-71
2021/12/05 10:48:51;;;;;;;21.63;13.73;;;4.80;99.90;;;;;;5074227;28;20046;-72
2021/12/05 10:51:20;;;;;;;21.73;13.93;;;4.80;99.90;;;;;;5051545;28;20048;-71
2021/12/05 10:53:49;;;;;;;20.17;13.77;;;4.80;99.90;;;;;;5053102;28;20442;-71
2021/12/05 10:56:26;;;;;;;21.33;12.70;;;4.80;99.90;;;;;;5049525;28;20044;-71
2021/12/05 10:59:10;;;;;;;20.57;13.80;;;4.80;99.90;;;;;;5073477;28;20106;-71
2021/12/05 11:01:42;;;;;;;18.47;12.97;;;4.80;99.90;;;;;;5055250;28;20061;-71
2021/12/05 11:04:24;;;;;;;20.87;12.97;;;4.80;99.90;;;;;;5061453;28;20079;-72
2021/12/05 11:07:01;;;;;;;19.87;11.33;;;4.90;99.90;;;;;;5070340;28;20036;-72
2021/12/05 11:09:38;;;;;;;18.87;12.57;;;4.90;99.90;;;;;;5058212;28;20047;-72
2021/12/05 11:12:19;;;;;;;19.43;11.97;;;4.90;99.90;;;;;;5061549;28;20048;-72
2021/12/05 11:14:55;;;;;;;16.07;11.37;;;4.90;99.90;;;;;;5053153;28;20068;-72
2021/12/05 11:17:24;;;;;;;16.87;11.83;;;4.90;99.90;;;;;;5064426;28;20051;-72
2021/12/05 11:19:53;;;;;;;15.80;11.03;;;4.90;99.90;;;;;;5063391;28;20048;-72
2021/12/05 11:22:33;;;;;;;17.63;11.50;;;4.90;99.90;;;;;;5075920;28;20833;-71
2021/12/05 11:25:10;;;;;;;14.03;11.27;;;4.90;99.90;;;;;;5060729;28;20059;-72
2021/12/05 11:27:41;;;;;;;17.13;11.23;;;4.90;99.90;;;;;;5057926;28;20044;-72
2021/12/05 11:30:16;;;;;;;16.13;12.10;;;4.90;99.90;;;;;;5063647;28;20040;-72
2021/12/05 11:33:09;;;;;;;18.23;11.57;;;5.00;99.90;;;;;;5051843;28;20534;-72
2021/12/05 11:35:37;;;;;;;18.57;11.33;;;5.00;99.90;;;;;;5060155;28;20060;-72
2021/12/05 11:38:21;;;;;;;17.07;11.73;;;5.00;99.90;;;;;;5052376;28;20288;-72
2021/12/05 11:40:51;;;;;;;15.33;10.47;;;5.00;99.90;;;;;;5067790;28;20111;-72
2021/12/05 11:43:30;;;;;;;15.15;10.32;;;5.00;99.90;;;;;;5068008;28;20048;-72
2021/12/05 11:46:13;;;;;;;16.77;11.03;;;5.00;99.90;;;;;;5053361;28;20074;-71
2021/12/05 11:48:52;;;;;;;14.73;10.33;;;5.00;99.90;;;;;;5074347;28;20114;-72
2021/12/05 11:51:20;;;;;;;16.73;10.80;;;5.00;99.90;;;;;;5059255;28;20406;-72
2021/12/05 11:53:57;;;;;;;14.53;10.57;;;5.00;99.90;;;;;;5060694;28;20075;-72
2021/12/05 11:56:29;;;;;;;15.20;10.33;;;5.00;99.90;;;;;;5059350;28;20044;-73
2021/12/05 11:59:07;;;;;;;16.53;11.23;;;5.00;99.90;;;;;;5068790;28;20047;-73
2021/12/05 12:01:56;;;;;;;18.77;11.53;;;5.00;99.90;;;;;;5078978;28;20077;-74
2021/12/05 12:04:36;;;;;;;17.40;11.73;;;5.10;99.90;;;;;;5065943;28;20056;-74
2021/12/05 12:07:46;;;;;;;16.77;12.97;;;5.00;99.90;;;;;;5059542;28;20487;-73
2021/12/05 12:10:34;;;;;;;16.60;11.85;;;5.00;99.90;;;;;;5040909;28;20063;-73
2021/12/05 12:13:05;;;;;;;19.40;12.60;;;5.10;99.90;;;;;;5085988;28;20048;-74
2021/12/05 12:15:32;;;;;;;20.67;11.90;;;5.10;99.90;;;;;;5079607;28;20048;-73
2021/12/05 12:18:09;;;;;;;16.73;12.27;;;5.10;99.90;;;;;;5061074;28;20115;-73
2021/12/05 12:20:39;;;;;;;22.53;14.37;;;5.10;99.90;;;;;;5073911;28;20048;-72
2021/12/05 12:23:05;;;;;;;19.13;12.33;;;5.10;99.90;;;;;;5077995;28;20060;-72
2021/12/05 12:25:35;;;;;;;16.13;11.70;;;5.20;99.90;;;;;;5085066;28;20040;-72
2021/12/05 12:28:02;;;;;;;17.65;12.60;;;5.20;99.90;;;;;;5053245;28;20533;-72
2021/12/05 12:30:31;;;;;;;14.67;11.53;;;5.20;99.90;;;;;;5066776;28;20102;-71
2021/12/05 12:33:34;;;;;;;18.03;12.57;;;5.30;99.90;;;;;;5069795;28;20123;-72
2021/12/05 12:36:01;;;;;;;19.33;12.20;;;5.30;99.90;;;;;;5065487;28;20079;-72
2021/12/05 12:38:30;;;;;;;15.60;12.17;;;5.30;99.90;;;;;;5055361;28;20523;-72
2021/12/05 12:41:11;;;;;;;15.73;12.07;;;5.30;99.90;;;;;;5070830;28;20093;-72
2021/12/05 12:43:46;;;;;;;16.47;11.67;;;5.30;99.90;;;;;;5069816;28;20546;-72
2021/12/05 12:46:36;;;;;;;13.10;10.83;;;5.30;99.90;;;;;;5073056;28;20047;-71
2021/12/05 12:49:17;;;;;;;16.38;12.00;;;5.30;99.90;;;;;;5078732;28;20047;-72
2021/12/05 12:51:44;;;;;;;16.80;11.47;;;5.30;99.90;;;;;;5070010;28;20079;-72
2021/12/05 12:54:18;;;;;;;15.57;11.10;;;5.30;99.90;;;;;;5071629;28;20044;-72
2021/12/05 12:57:06;;;;;;;14.90;11.20;;;5.30;99.90;;;;;;5071933;28;20572;-72
2021/12/05 12:59:35;;;;;;;18.27;10.57;;;5.30;99.90;;;;;;5071730;28;20040;-72
2021/12/05 13:10:42;;;;;;;16.33;10.93;;;5.30;99.90;;;;;;5077978;28;20047;-72
2021/12/05 13:13:19;;;;;;;12.87;10.50;;;5.40;99.90;;;;;;5059676;28;20076;-72
2021/12/05 13:15:52;;;;;;;17.07;11.67;;;5.40;99.90;;;;;;5074598;28;20079;-72
2021/12/05 13:18:35;;;;;;;16.40;10.20;;;5.40;99.90;;;;;;5073104;28;20386;-73
2021/12/05 13:21:17;;;;;;;12.37;9.13;;;5.40;99.90;;;;;;5068613;28;20131;-72
2021/12/05 13:23:48;;;;;;;12.50;9.70;;;5.40;99.90;;;;;;5076960;28;20129;-72
2021/12/05 13:26:27;;;;;;;11.87;9.03;;;5.40;99.90;;;;;;5056520;28;20055;-72
2021/12/05 13:29:17;;;;;;;14.85;9.68;;;5.40;99.90;;;;;;5051026;28;20105;-72
2021/12/05 13:31:42;;;;;;;11.00;9.17;;;5.30;99.90;;;;;;5044685;28;20110;-72
2021/12/05 13:34:34;;;;;;;14.73;9.60;;;5.30;99.90;;;;;;5068669;28;20052;-72
2021/12/05 13:37:03;;;;;;;14.63;10.73;;;5.30;99.90;;;;;;5052047;28;20510;-72
2021/12/05 13:39:47;;;;;;;15.50;10.30;;;5.20;99.90;;;;;;5068139;28;20049;-73
2021/12/05 13:42:13;;;;;;;13.10;9.90;;;5.20;99.90;;;;;;5067883;28;20056;-72
2021/12/05 13:45:02;;;;;;;15.70;9.60;;;5.20;99.90;;;;;;5068605;28;20521;-72
2021/12/05 13:47:47;;;;;;;13.27;9.77;;;5.20;99.90;;;;;;5068272;28;20468;-72
2021/12/05 13:50:21;;;;;;;13.70;10.13;;;5.30;99.90;;;;;;5051091;28;20048;-72
2021/12/05 13:52:53;;;;;;;12.53;10.10;;;5.30;99.90;;;;;;5059194;28;20048;-72
2021/12/05 13:55:34;;;;;;;15.07;10.80;;;5.30;99.90;;;;;;5071023;28;20357;-72
2021/12/05 13:58:12;;;;;;;13.23;9.07;;;5.30;99.90;;;;;;5077971;28;20044;-72
2021/12/05 14:00:39;;;;;;;15.83;10.17;;;5.30;99.90;;;;;;5068268;28;20048;-72
2021/12/05 14:03:05;;;;;;;13.20;9.23;;;5.30;99.90;;;;;;5050617;28;20091;-72
2021/12/05 14:05:30;;;;;;;13.13;10.57;;;5.30;99.90;;;;;;5058114;28;20089;-72
2021/12/05 14:07:56;;;;;;;15.90;10.37;;;5.30;99.90;;;;;;5055878;28;20376;-72
2021/12/05 14:10:22;;;;;;;11.30;9.60;;;5.30;99.90;;;;;;5078759;28;20060;-72
2021/12/05 14:12:48;;;;;;;14.27;10.07;;;5.30;99.90;;;;;;5057501;28;20098;-72
2021/12/05 14:15:15;;;;;;;14.27;9.50;;;5.30;99.90;;;;;;5078721;28;20676;-72
2021/12/05 14:17:44;;;;;;;13.50;9.50;;;5.30;99.90;;;;;;5062593;28;20059;-72
2021/12/05 14:20:20;;;;;;;12.73;9.37;;;5.30;99.90;;;;;;5053508;28;20040;-72
2021/12/05 14:22:49;;;;;;;11.00;8.93;;;5.30;99.90;;;;;;5075736;28;20531;-72
2021/12/05 14:25:26;;;;;;;13.10;9.87;;;5.20;99.90;;;;;;5067043;28;20407;-72
2021/12/05 14:27:59;;;;;;;14.73;10.13;;;5.20;99.90;;;;;;5075893;28;20039;-73
2021/12/05 14:30:29;;;;;;;12.97;10.27;;;5.20;99.90;;;;;;5082989;28;20055;-72
2021/12/05 14:33:00;;;;;;;12.13;9.00;;;5.20;99.90;;;;;;5057093;28;20040;-72
2021/12/05 14:35:33;;;;;;;11.33;9.67;;;5.20;99.90;;;;;;5051056;28;20099;-72
2021/12/05 14:38:02;;;;;;;12.60;8.47;;;5.20;99.90;;;;;;5071243;28;20093;-72
2021/12/05 14:40:31;;;;;;;13.00;9.30;;;5.10;99.90;;;;;;5056614;28;20049;-72
2021/12/05 14:43:01;;;;;;;11.83;9.00;;;5.10;99.90;;;;;;5078903;28;20040;-72
2021/12/05 14:45:33;;;;;;;11.10;9.07;;;5.10;99.90;;;;;;5082521;28;20444;-72
2021/12/05 14:48:03;;;;;;;12.10;9.57;;;5.10;99.90;;;;;;5063568;28;20044;-72
2021/12/05 14:50:34;;;;;;;10.93;9.32;;;5.10;99.90;;;;;;5069340;28;20059;-72
2021/12/05 14:53:02;;;;;;;11.67;9.23;;;5.10;99.90;;;;;;5047316;28;20438;-71
2021/12/05 14:55:30;;;;;;;14.50;9.50;;;5.00;99.90;;;;;;5062331;28;20495;-71
2021/12/05 14:57:59;;;;;;;11.37;9.47;;;5.10;99.90;;;;;;5067404;28;20052;-71
2021/12/05 15:00:38;;;;;;;13.13;9.87;;;5.00;99.90;;;;;;5065691;28;20059;-71
2021/12/05 15:03:09;;;;;;;13.25;10.38;;;5.10;99.90;;;;;;5081748;28;20502;-72
2021/12/05 15:05:37;;;;;;;14.32;10.82;;;5.00;99.90;;;;;;5085157;28;20040;-71
2021/12/05 15:08:06;;;;;;;14.97;11.17;;;5.10;99.90;;;;;;5074046;28;20507;-72
2021/12/05 15:10:32;;;;;;;14.23;11.03;;;5.00;99.90;;;;;;5050312;28;20040;-72
2021/12/05 15:12:57;;;;;;;14.47;11.33;;;5.00;99.90;;;;;;5055123;28;20066;-72
2021/12/05 15:15:25;;;;;;;13.10;10.13;;;5.00;99.90;;;;;;5069629;28;20044;-72
2021/12/05 15:17:51;;;;;;;13.53;10.03;;;4.90;99.90;;;;;;5067442;28;20043;-72
2021/12/05 15:20:21;;;;;;;13.47;9.27;;;4.90;99.90;;;;;;5066316;28;20048;-72
2021/12/05 15:22:51;;;;;;;12.52;9.32;;;4.90;99.90;;;;;;5066713;28;20044;-72
2021/12/05 15:25:21;;;;;;;13.15;8.38;;;4.90;99.90;;;;;;5066398;28;20079;-72
2021/12/05 15:27:48;;;;;;;18.42;9.20;;;4.90;99.90;;;;;;5060438;28;20522;-72
2021/12/05 15:30:25;;;;;;;11.77;9.50;;;4.90;99.90;;;;;;5069166;28;20510;-72
2021/12/05 15:32:59;;;;;;;11.77;9.03;;;4.80;99.90;;;;;;5071112;28;20047;-72
2021/12/05 15:35:26;;;;;;;11.80;9.47;;;4.90;99.90;;;;;;5050585;28;20079;-72
2021/12/05 15:38:01;;;;;;;11.37;10.07;;;4.80;99.90;;;;;;5050438;28;20040;-72
2021/12/05 15:40:29;;;;;;;14.57;10.67;;;4.80;99.90;;;;;;5053332;28;20805;-72
2021/12/05 15:43:01;;;;;;;11.93;10.03;;;4.80;99.90;;;;;;5082810;28;20047;-72
2021/12/05 15:45:27;;;;;;;14.20;11.07;;;4.80;99.90;;;;;;5051652;28;20271;-72
2021/12/05 15:47:53;;;;;;;16.17;11.17;;;4.80;99.90;;;;;;5061987;28;20403;-72
2021/12/05 15:50:21;;;;;;;15.83;12.13;;;4.90;99.90;;;;;;5037523;28;20047;-73
2021/12/05 15:52:49;;;;;;;14.87;12.67;;;4.90;99.90;;;;;;5078837;28;20048;-72
2021/12/05 15:55:19;;;;;;;16.70;12.80;;;4.90;99.90;;;;;;5076633;28;20158;-72
2021/12/05 15:57:47;;;;;;;;;;;4.90;99.90;;;;;;5069312;28;20515;-72
2021/12/05 16:00:16;;;;;;;17.27;13.77;;;4.90;99.90;;;;;;5086320;28;19920;-71
2021/12/05 16:02:46;;;;;;;17.47;14.20;;;4.90;99.90;;;;;;5063100;28;20044;-72
2021/12/05 16:05:18;;;;;;;20.07;15.27;;;5.00;99.90;;;;;;5085593;28;20141;-70
2021/12/05 16:07:44;;;;;;;20.67;15.40;;;5.00;99.90;;;;;;5061810;28;20040;-72
2021/12/05 16:10:23;;;;;;;19.73;14.20;;;5.00;99.90;;;;;;5048081;28;20052;-72
2021/12/05 16:12:52;;;;;;;18.83;14.53;;;5.00;99.90;;;;;;5064890;28;20526;-71
2021/12/05 16:15:25;;;;;;;17.50;13.63;;;5.00;99.90;;;;;;5090930;28;20052;-71
2021/12/05 16:17:55;;;;;;;20.93;15.30;;;4.90;99.90;;;;;;5083550;28;20048;-71
2021/12/05 16:20:50;;;;;;;24.03;16.13;;;5.10;99.90;;;;;;5088267;28;20063;-72
2021/12/05 16:23:24;;;;;;;24.43;16.00;;;5.00;99.90;;;;;;5072902;28;20049;-71
2021/12/05 16:26:10;;;;;;;20.07;16.10;;;5.00;99.90;;;;;;5073311;28;21071;-71
2021/12/05 16:28:39;;;;;;;21.90;16.10;;;5.00;99.90;;;;;;5074721;28;20558;-71
2021/12/05 16:31:14;;;;;;;22.77;17.43;;;5.00;99.90;;;;;;5077926;28;20040;-72
2021/12/05 16:33:44;;;;;;;20.90;17.40;;;5.00;99.90;;;;;;5072790;28;20066;-74
2021/12/05 16:36:10;;;;;;;22.60;17.75;;;5.00;99.90;;;;;;5068992;28;20091;-71
2021/12/05 16:38:39;;;;;;;22.53;19.40;;;4.90;99.90;;;;;;5036744;28;20384;-72
2021/12/05 16:41:16;;;;;;;25.40;19.07;;;5.00;99.90;;;;;;5077012;28;20380;-71
2021/12/05 16:43:50;;;;;;;23.40;19.37;;;5.00;99.90;;;;;;5074152;28;20586;-71
2021/12/05 16:46:23;;;;;;;24.70;19.70;;;5.00;99.90;;;;;;5046044;28;20067;-71
2021/12/05 16:48:50;;;;;;;24.27;19.77;;;5.00;99.90;;;;;;5072760;28;20539;-72
2021/12/05 16:51:30;;;;;;;23.70;19.40;;;4.90;99.90;;;;;;5058331;28;20036;-72
2021/12/05 16:54:03;;;;;;;30.98;20.13;;;5.00;99.90;;;;;;5073232;28;20056;-72
2021/12/05 16:56:41;;;;;;;27.47;19.97;;;4.90;99.90;;;;;;5069720;28;20052;-72
2021/12/05 16:59:13;;;;;;;26.27;20.27;;;5.00;99.90;;;;;;5078103;28;20507;-72
2021/12/05 17:01:38;;;;;;;26.30;19.53;;;4.90;99.90;;;;;;5069987;28;20054;-71
2021/12/05 17:04:05;;;;;;;28.03;20.27;;;4.90;99.90;;;;;;5077712;28;20041;-72
2021/12/05 17:06:45;;;;;;;24.53;19.77;;;4.90;99.90;;;;;;5041879;28;20038;-72
2021/12/05 17:09:12;;;;;;;23.98;19.63;;;4.90;99.90;;;;;;5077356;28;20028;-72
2021/12/05 17:11:38;;;;;;;27.20;20.70;;;4.90;99.90;;;;;;5080470;28;20056;-72
2021/12/05 17:14:05;;;;;;;28.23;20.67;;;4.90;99.90;;;;;;5056937;28;20044;-71
2021/12/05 17:16:31;;;;;;;27.30;21.60;;;4.90;99.90;;;;;;5068974;28;20394;-71
2021/12/05 17:19:08;;;;;;;29.27;22.03;;;4.90;99.90;;;;;;5052028;28;20036;-71
2021/12/05 17:21:49;;;;;;;27.20;20.93;;;4.90;99.90;;;;;;5054147;28;20422;-71
2021/12/05 17:24:21;;;;;;;28.30;22.80;;;4.90;99.90;;;;;;5065691;28;20081;-72
2021/12/05 17:26:53;;;;;;;29.60;22.20;;;4.90;99.90;;;;;;5078025;28;20076;-71
2021/12/05 17:29:22;;;;;;;29.53;22.53;;;4.90;99.90;;;;;;5073432;28;20051;-72
2021/12/05 17:32:10;;;;;;;30.97;23.13;;;4.90;99.90;;;;;;5081932;28;20465;-72
2021/12/05 17:34:37;;;;;;;31.37;23.90;;;4.90;99.90;;;;;;5062980;28;20099;-72
2021/12/05 17:37:09;;;;;;;30.30;22.33;;;4.90;99.90;;;;;;5065801;28;20047;-72
2021/12/05 17:39:40;;;;;;;31.70;24.73;;;4.90;99.90;;;;;;5071547;28;20071;-72
2021/12/05 17:42:09;;;;;;;31.05;24.60;;;4.90;99.90;;;;;;5076775;28;20036;-71
2021/12/05 17:44:35;;;;;;;33.53;25.00;;;4.90;99.90;;;;;;5070734;28;20572;-72
2021/12/05 17:47:05;;;;;;;33.13;24.50;;;4.90;99.90;;;;;;5053154;28;20093;-72
2021/12/05 17:49:37;;;;;;;39.27;26.30;;;4.90;99.90;;;;;;5070497;28;20037;-71
2021/12/05 17:52:06;;;;;;;29.43;24.23;;;4.90;99.90;;;;;;5068799;28;20125;-72
2021/12/05 17:54:39;;;;;;;38.10;27.40;;;4.90;99.90;;;;;;5072284;28;20044;-72
2021/12/05 17:57:13;;;;;;;39.37;27.30;;;4.90;99.90;;;;;;5066917;28;20048;-71
2021/12/05 17:59:55;;;;;;;38.80;26.97;;;4.90;99.90;;;;;;5068406;28;20047;-72
2021/12/05 18:02:45;;;;;;;41.57;29.20;;;4.90;99.90;;;;;;5077231;28;20070;-71
2021/12/05 18:05:19;;;;;;;39.78;28.85;;;4.90;99.90;;;;;;5054138;28;20032;-71
2021/12/05 18:07:47;;;;;;;41.07;28.70;;;4.90;99.90;;;;;;5066444;28;20090;-72
2021/12/05 18:10:14;;;;;;;42.33;28.63;;;4.90;99.90;;;;;;5068249;28;20056;-71
2021/12/05 18:12:42;;;;;;;42.30;29.37;;;4.90;99.90;;;;;;5055321;28;20105;-72
2021/12/05 18:15:18;;;;;;;43.23;29.63;;;4.90;99.90;;;;;;5071421;28;20444;-72
2021/12/05 18:17:44;;;;;;;42.80;31.27;;;4.90;99.90;;;;;;5068287;28;20048;-71
2021/12/05 18:20:14;;;;;;;43.20;29.93;;;4.90;99.90;;;;;;5043298;28;20036;-72
2021/12/05 18:22:40;;;;;;;41.05;29.73;;;4.90;99.90;;;;;;5068509;28;20053;-72
2021/12/05 18:25:09;;;;;;;44.20;31.50;;;4.90;99.90;;;;;;5070198;28;20507;-71
2021/12/05 18:27:36;;;;;;;44.33;32.20;;;4.90;99.90;;;;;;5055734;28;20052;-72
2021/12/05 18:30:03;;;;;;;39.90;30.93;;;4.90;99.90;;;;;;5070511;28;20064;-72
2021/12/05 18:32:29;;;;;;;43.40;32.73;;;4.90;99.90;;;;;;5069691;28;20087;-73
2021/12/05 18:34:55;;;;;;;42.63;31.83;;;4.90;99.90;;;;;;5037860;28;20080;-73